sensor_id;sensor_type;location;lat;lon;timestamp;P1;durP1;ratioP1;P2;durP2;ratioP2
16436;SDS011;8328;52.206;21.006;2023-04-25T00:01:32;12.80;;;11.40;;
16436;SDS011;8328;52.206;21.006;2023-04-25T00:04:00;14.90;;;12.10;;
16436;SDS011;8328;52.206;21.006;2023-04-25T00:06:27;14.00;;;12.33;;
16436;SDS011;8328;52.206;21.006;2023-04-25T00:08:54;16.53;;;12.20;;
16436;SDS011;8328;52.206;21.006;2023-04-25T00:11:21;13.40;;;11.33;;
16436;SDS011;8328;52.206;21.006;2023-04-25T00:13:47;16.80;;;12.80;;
16436;SDS011;8328;52.206;21.006;2023-04-25T00:16:14;14.40;;;11.67;;
16436;SDS011;8328;52.206;21.006;2023-04-25T00:18:41;15.10;;;12.27;;
16436;SDS011;8328;52.206;21.006;2023-04-25T00:21:07;14.63;;;12.80;;
16436;SDS011;8328;52.206;21.006;2023-04-25T00:23:33;17.27;;;12.73;;
16436;SDS011;8328;52.206;21.006;2023-04-25T00:26:01;15.40;;;12.90;;
16436;SDS011;8328;52.206;21.006;2023-04-25T00:28:27;14.73;;;13.13;;
16436;SDS011;8328;52.206;21.006;2023-04-25T00:30:53;20.17;;;14.00;;
16436;SDS011;8328;52.206;21.006;2023-04-25T00:33:19;18.40;;;13.20;;
16436;SDS011;8328;52.206;21.006;2023-04-25T00:35:45;14.47;;;12.90;;
16436;SDS011;8328;52.206;21.006;2023-04-25T00:38:11;18.47;;;13.87;;
16436;SDS011;8328;52.206;21.006;2023-04-25T00:40:37;17.03;;;13.87;;
16436;SDS011;8328;52.206;21.006;2023-04-25T00:43:02;16.83;;;12.73;;
16436;SDS011;8328;52.206;21.006;2023-04-25T00:45:29;18.90;;;14.70;;
16436;SDS011;8328;52.206;21.006;2023-04-25T00:47:55;14.37;;;12.40;;
16436;SDS011;8328;52.206;21.006;2023-04-25T00:50:21;16.10;;;13.70;;
16436;SDS011;8328;52.206;21.006;2023-04-25T00:52:48;16.87;;;14.43;;
16436;SDS011;8328;52.206;21.006;2023-04-25T00:55:14;18.83;;;13.23;;
16436;SDS011;8328;52.206;21.006;2023-04-25T00:57:40;18.47;;;13.70;;
16436;SDS011;8328;52.206;21.006;2023-04-25T01:00:07;17.43;;;13.83;;
16436;SDS011;8328;52.206;21.006;2023-04-25T01:02:39;15.83;;;14.07;;
16436;SDS011;8328;52.206;21.006;2023-04-25T01:05:06;16.03;;;13.77;;
16436;SDS011;8328;52.206;21.006;2023-04-25T01:07:32;18.37;;;14.37;;
16436;SDS011;8328;52.206;21.006;2023-04-25T01:09:58;14.83;;;13.03;;
16436;SDS011;8328;52.206;21.006;2023-04-25T01:12:23;17.37;;;13.97;;
16436;SDS011;8328;52.206;21.006;2023-04-25T01:14:49;16.17;;;13.50;;
16436;SDS011;8328;52.206;21.006;2023-04-25T01:17:15;17.83;;;14.10;;
16436;SDS011;8328;52.206;21.006;2023-04-25T01:19:42;17.03;;;13.23;;
16436;SDS011;8328;52.206;21.006;2023-04-25T01:22:09;19.10;;;12.57;;
16436;SDS011;8328;52.206;21.006;2023-04-25T01:24:35;14.87;;;12.73;;
16436;SDS011;8328;52.206;21.006;2023-04-25T01:27:02;13.27;;;11.50;;
16436;SDS011;8328;52.206;21.006;2023-04-25T01:29:28;14.93;;;12.13;;
16436;SDS011;8328;52.206;21.006;2023-04-25T01:31:55;13.93;;;12.30;;
16436;SDS011;8328;52.206;21.006;2023-04-25T01:34:21;13.90;;;11.97;;
16436;SDS011;8328;52.206;21.006;2023-04-25T01:36:48;14.10;;;11.60;;
16436;SDS011;8328;52.206;21.006;2023-04-25T01:39:15;14.73;;;12.50;;
16436;SDS011;8328;52.206;21.006;2023-04-25T01:41:42;15.63;;;12.00;;
16436;SDS011;8328;52.206;21.006;2023-04-25T01:44:08;14.07;;;11.77;;
16436;SDS011;8328;52.206;21.006;2023-04-25T01:46:34;15.60;;;12.23;;
16436;SDS011;8328;52.206;21.006;2023-04-25T01:49:00;14.87;;;12.47;;
16436;SDS011;8328;52.206;21.006;2023-04-25T01:51:25;15.13;;;12.73;;
16436;SDS011;8328;52.206;21.006;2023-04-25T01:53:51;14.10;;;12.20;;
16436;SDS011;8328;52.206;21.006;2023-04-25T01:56:19;14.43;;;11.97;;
16436;SDS011;8328;52.206;21.006;2023-04-25T01:58:45;12.77;;;10.97;;
16436;SDS011;8328;52.206;21.006;2023-04-25T02:01:11;13.33;;;11.90;;
16436;SDS011;8328;52.206;21.006;2023-04-25T02:03:37;15.03;;;12.47;;
16436;SDS011;8328;52.206;21.006;2023-04-25T02:06:02;14.63;;;11.97;;
16436;SDS011;8328;52.206;21.006;2023-04-25T02:08:28;15.53;;;11.47;;
16436;SDS011;8328;52.206;21.006;2023-04-25T02:10:55;12.77;;;11.00;;
16436;SDS011;8328;52.206;21.006;2023-04-25T02:13:21;13.93;;;11.13;;
16436;SDS011;8328;52.206;21.006;2023-04-25T02:15:46;15.20;;;12.17;;
16436;SDS011;8328;52.206;21.006;2023-04-25T02:18:12;14.43;;;11.80;;
16436;SDS011;8328;52.206;21.006;2023-04-25T02:20:38;14.40;;;11.73;;
16436;SDS011;8328;52.206;21.006;2023-04-25T02:23:03;15.03;;;12.43;;
16436;SDS011;8328;52.206;21.006;2023-04-25T02:25:30;13.97;;;11.47;;
16436;SDS011;8328;52.206;21.006;2023-04-25T02:27:55;15.43;;;12.37;;
16436;SDS011;8328;52.206;21.006;2023-04-25T02:30:21;15.03;;;11.80;;
16436;SDS011;8328;52.206;21.006;2023-04-25T02:32:47;15.47;;;11.20;;
16436;SDS011;8328;52.206;21.006;2023-04-25T02:35:13;14.87;;;11.67;;
16436;SDS011;8328;52.206;21.006;2023-04-25T02:37:39;14.63;;;10.80;;
16436;SDS011;8328;52.206;21.006;2023-04-25T02:40:05;12.13;;;9.20;;
16436;SDS011;8328;52.206;21.006;2023-04-25T02:42:32;13.03;;;10.50;;
16436;SDS011;8328;52.206;21.006;2023-04-25T02:44:57;12.67;;;10.70;;
16436;SDS011;8328;52.206;21.006;2023-04-25T02:47:24;12.13;;;8.77;;
16436;SDS011;8328;52.206;21.006;2023-04-25T02:49:49;14.17;;;10.73;;
16436;SDS011;8328;52.206;21.006;2023-04-25T02:52:15;12.47;;;10.77;;
16436;SDS011;8328;52.206;21.006;2023-04-25T02:54:41;11.90;;;8.27;;
16436;SDS011;8328;52.206;21.006;2023-04-25T02:57:07;11.97;;;10.03;;
16436;SDS011;8328;52.206;21.006;2023-04-25T02:59:33;11.67;;;10.23;;
16436;SDS011;8328;52.206;21.006;2023-04-25T03:01:59;13.33;;;10.60;;
16436;SDS011;8328;52.206;21.006;2023-04-25T03:04:26;13.53;;;10.77;;
16436;SDS011;8328;52.206;21.006;2023-04-25T03:06:51;12.93;;;10.17;;
16436;SDS011;8328;52.206;21.006;2023-04-25T03:09:18;12.43;;;10.07;;
16436;SDS011;8328;52.206;21.006;2023-04-25T03:11:45;13.63;;;10.63;;
16436;SDS011;8328;52.206;21.006;2023-04-25T03:14:11;13.40;;;10.30;;
16436;SDS011;8328;52.206;21.006;2023-04-25T03:16:37;13.50;;;9.67;;
16436;SDS011;8328;52.206;21.006;2023-04-25T03:19:03;13.27;;;9.93;;
16436;SDS011;8328;52.206;21.006;2023-04-25T03:21:30;13.70;;;11.03;;
16436;SDS011;8328;52.206;21.006;2023-04-25T03:23:59;14.33;;;10.13;;
16436;SDS011;8328;52.206;21.006;2023-04-25T03:26:27;10.53;;;8.30;;
16436;SDS011;8328;52.206;21.006;2023-04-25T03:28:53;12.17;;;10.10;;
16436;SDS011;8328;52.206;21.006;2023-04-25T03:31:19;12.03;;;9.47;;
16436;SDS011;8328;52.206;21.006;2023-04-25T03:33:44;12.00;;;9.63;;
16436;SDS011;8328;52.206;21.006;2023-04-25T03:36:10;12.30;;;9.63;;
16436;SDS011;8328;52.206;21.006;2023-04-25T03:38:36;12.30;;;9.47;;
16436;SDS011;8328;52.206;21.006;2023-04-25T03:41:02;12.40;;;8.80;;
16436;SDS011;8328;52.206;21.006;2023-04-25T03:43:28;13.63;;;9.97;;
16436;SDS011;8328;52.206;21.006;2023-04-25T03:45:54;11.03;;;9.17;;
16436;SDS011;8328;52.206;21.006;2023-04-25T03:48:20;12.43;;;9.13;;
16436;SDS011;8328;52.206;21.006;2023-04-25T03:50:50;11.20;;;7.50;;
16436;SDS011;8328;52.206;21.006;2023-04-25T03:53:17;11.17;;;8.43;;
16436;SDS011;8328;52.206;21.006;2023-04-25T03:55:42;12.43;;;8.03;;
16436;SDS011;8328;52.206;21.006;2023-04-25T03:58:08;10.73;;;8.60;;
16436;SDS011;8328;52.206;21.006;2023-04-25T04:00:34;14.13;;;8.77;;
16436;SDS011;8328;52.206;21.006;2023-04-25T04:03:00;11.87;;;8.50;;
16436;SDS011;8328;52.206;21.006;2023-04-25T04:05:26;11.27;;;8.93;;
16436;SDS011;8328;52.206;21.006;2023-04-25T04:07:52;10.67;;;8.50;;
16436;SDS011;8328;52.206;21.006;2023-04-25T04:10:18;8.97;;;6.77;;
16436;SDS011;8328;52.206;21.006;2023-04-25T04:12:44;12.43;;;7.70;;
16436;SDS011;8328;52.206;21.006;2023-04-25T04:15:10;10.80;;;8.27;;
16436;SDS011;8328;52.206;21.006;2023-04-25T04:17:36;10.47;;;6.77;;
16436;SDS011;8328;52.206;21.006;2023-04-25T04:20:02;13.90;;;8.17;;
16436;SDS011;8328;52.206;21.006;2023-04-25T04:22:28;8.53;;;6.23;;
16436;SDS011;8328;52.206;21.006;2023-04-25T04:24:54;9.50;;;6.60;;
16436;SDS011;8328;52.206;21.006;2023-04-25T04:27:21;10.53;;;7.70;;
16436;SDS011;8328;52.206;21.006;2023-04-25T04:29:47;8.83;;;6.97;;
16436;SDS011;8328;52.206;21.006;2023-04-25T04:32:14;8.27;;;6.70;;
16436;SDS011;8328;52.206;21.006;2023-04-25T04:34:40;9.93;;;7.30;;
16436;SDS011;8328;52.206;21.006;2023-04-25T04:37:06;11.00;;;7.83;;
16436;SDS011;8328;52.206;21.006;2023-04-25T04:39:32;6.80;;;5.93;;
16436;SDS011;8328;52.206;21.006;2023-04-25T04:41:59;7.90;;;7.10;;
16436;SDS011;8328;52.206;21.006;2023-04-25T04:44:26;9.63;;;6.97;;
16436;SDS011;8328;52.206;21.006;2023-04-25T04:46:53;9.93;;;7.50;;
16436;SDS011;8328;52.206;21.006;2023-04-25T04:49:19;8.60;;;7.50;;
16436;SDS011;8328;52.206;21.006;2023-04-25T04:51:46;8.63;;;6.80;;
16436;SDS011;8328;52.206;21.006;2023-04-25T04:54:14;7.30;;;6.47;;
16436;SDS011;8328;52.206;21.006;2023-04-25T04:56:40;8.27;;;7.30;;
16436;SDS011;8328;52.206;21.006;2023-04-25T04:59:06;8.87;;;6.83;;
16436;SDS011;8328;52.206;21.006;2023-04-25T05:01:32;10.67;;;6.37;;
16436;SDS011;8328;52.206;21.006;2023-04-25T05:04:01;8.63;;;7.47;;
16436;SDS011;8328;52.206;21.006;2023-04-25T05:06:27;7.73;;;6.43;;
16436;SDS011;8328;52.206;21.006;2023-04-25T05:08:56;9.53;;;7.80;;
16436;SDS011;8328;52.206;21.006;2023-04-25T05:11:23;9.60;;;8.60;;
16436;SDS011;8328;52.206;21.006;2023-04-25T05:13:52;9.40;;;7.70;;
16436;SDS011;8328;52.206;21.006;2023-04-25T05:16:18;10.30;;;7.60;;
16436;SDS011;8328;52.206;21.006;2023-04-25T05:18:45;9.27;;;8.03;;
16436;SDS011;8328;52.206;21.006;2023-04-25T05:21:11;11.07;;;9.33;;
16436;SDS011;8328;52.206;21.006;2023-04-25T05:23:37;9.10;;;7.80;;
16436;SDS011;8328;52.206;21.006;2023-04-25T05:26:03;8.90;;;7.33;;
16436;SDS011;8328;52.206;21.006;2023-04-25T05:28:28;8.07;;;7.23;;
16436;SDS011;8328;52.206;21.006;2023-04-25T05:30:54;9.77;;;7.50;;
16436;SDS011;8328;52.206;21.006;2023-04-25T05:33:20;9.73;;;7.83;;
16436;SDS011;8328;52.206;21.006;2023-04-25T05:35:46;9.37;;;8.00;;
16436;SDS011;8328;52.206;21.006;2023-04-25T05:38:11;8.73;;;7.80;;
16436;SDS011;8328;52.206;21.006;2023-04-25T05:40:37;8.97;;;7.37;;
16436;SDS011;8328;52.206;21.006;2023-04-25T05:43:03;10.33;;;7.97;;
16436;SDS011;8328;52.206;21.006;2023-04-25T05:45:29;9.03;;;7.40;;
16436;SDS011;8328;52.206;21.006;2023-04-25T05:47:54;9.53;;;7.87;;
16436;SDS011;8328;52.206;21.006;2023-04-25T05:50:20;9.33;;;6.60;;
16436;SDS011;8328;52.206;21.006;2023-04-25T05:52:46;7.13;;;5.70;;
16436;SDS011;8328;52.206;21.006;2023-04-25T05:55:12;8.80;;;7.93;;
16436;SDS011;8328;52.206;21.006;2023-04-25T05:57:38;9.80;;;8.80;;
16436;SDS011;8328;52.206;21.006;2023-04-25T06:00:07;8.37;;;6.83;;
16436;SDS011;8328;52.206;21.006;2023-04-25T06:02:34;9.53;;;6.57;;
16436;SDS011;8328;52.206;21.006;2023-04-25T06:05:00;9.13;;;8.23;;
16436;SDS011;8328;52.206;21.006;2023-04-25T06:07:28;8.97;;;7.67;;
16436;SDS011;8328;52.206;21.006;2023-04-25T06:09:55;11.20;;;8.67;;
16436;SDS011;8328;52.206;21.006;2023-04-25T06:12:21;7.63;;;6.30;;
16436;SDS011;8328;52.206;21.006;2023-04-25T06:14:46;10.23;;;9.20;;
16436;SDS011;8328;52.206;21.006;2023-04-25T06:17:12;10.13;;;9.13;;
16436;SDS011;8328;52.206;21.006;2023-04-25T06:19:38;12.53;;;9.80;;
16436;SDS011;8328;52.206;21.006;2023-04-25T06:22:04;11.10;;;9.73;;
16436;SDS011;8328;52.206;21.006;2023-04-25T06:24:30;10.40;;;9.30;;
16436;SDS011;8328;52.206;21.006;2023-04-25T06:26:56;10.83;;;9.10;;
16436;SDS011;8328;52.206;21.006;2023-04-25T06:29:22;10.33;;;8.93;;
16436;SDS011;8328;52.206;21.006;2023-04-25T06:31:47;9.60;;;8.60;;
16436;SDS011;8328;52.206;21.006;2023-04-25T06:34:13;10.23;;;8.47;;
16436;SDS011;8328;52.206;21.006;2023-04-25T06:36:40;10.33;;;8.40;;
16436;SDS011;8328;52.206;21.006;2023-04-25T06:39:06;11.97;;;8.33;;
16436;SDS011;8328;52.206;21.006;2023-04-25T06:41:32;8.77;;;7.90;;
16436;SDS011;8328;52.206;21.006;2023-04-25T06:43:58;10.10;;;7.97;;
16436;SDS011;8328;52.206;21.006;2023-04-25T06:46:24;11.03;;;7.37;;
16436;SDS011;8328;52.206;21.006;2023-04-25T06:48:49;7.80;;;7.00;;
16436;SDS011;8328;52.206;21.006;2023-04-25T06:51:16;9.97;;;7.57;;
16436;SDS011;8328;52.206;21.006;2023-04-25T06:53:41;8.37;;;7.43;;
16436;SDS011;8328;52.206;21.006;2023-04-25T06:56:07;9.33;;;6.40;;
16436;SDS011;8328;52.206;21.006;2023-04-25T06:58:33;10.20;;;7.30;;
16436;SDS011;8328;52.206;21.006;2023-04-25T07:00:59;15.67;;;6.90;;
16436;SDS011;8328;52.206;21.006;2023-04-25T07:03:25;7.63;;;6.83;;
16436;SDS011;8328;52.206;21.006;2023-04-25T07:05:50;9.47;;;7.27;;
16436;SDS011;8328;52.206;21.006;2023-04-25T07:08:16;7.43;;;6.23;;
16436;SDS011;8328;52.206;21.006;2023-04-25T07:10:42;7.33;;;6.03;;
16436;SDS011;8328;52.206;21.006;2023-04-25T07:13:08;6.80;;;6.10;;
16436;SDS011;8328;52.206;21.006;2023-04-25T07:15:34;5.40;;;4.67;;
16436;SDS011;8328;52.206;21.006;2023-04-25T07:18:00;8.70;;;6.73;;
16436;SDS011;8328;52.206;21.006;2023-04-25T07:20:26;7.17;;;6.47;;
16436;SDS011;8328;52.206;21.006;2023-04-25T07:22:52;7.63;;;5.67;;
16436;SDS011;8328;52.206;21.006;2023-04-25T07:25:18;6.57;;;5.87;;
16436;SDS011;8328;52.206;21.006;2023-04-25T07:27:45;6.20;;;5.60;;
16436;SDS011;8328;52.206;21.006;2023-04-25T07:30:11;7.13;;;6.43;;
16436;SDS011;8328;52.206;21.006;2023-04-25T07:32:37;4.87;;;3.97;;
16436;SDS011;8328;52.206;21.006;2023-04-25T07:35:04;7.40;;;6.70;;
16436;SDS011;8328;52.206;21.006;2023-04-25T07:37:33;6.20;;;5.37;;
16436;SDS011;8328;52.206;21.006;2023-04-25T07:40:00;7.73;;;5.77;;
16436;SDS011;8328;52.206;21.006;2023-04-25T07:42:28;6.27;;;5.67;;
16436;SDS011;8328;52.206;21.006;2023-04-25T07:44:54;7.77;;;5.50;;
16436;SDS011;8328;52.206;21.006;2023-04-25T07:47:20;6.67;;;6.00;;
16436;SDS011;8328;52.206;21.006;2023-04-25T07:49:48;7.10;;;6.40;;
16436;SDS011;8328;52.206;21.006;2023-04-25T07:52:14;7.93;;;6.67;;
16436;SDS011;8328;52.206;21.006;2023-04-25T07:54:40;7.27;;;5.73;;
16436;SDS011;8328;52.206;21.006;2023-04-25T07:57:06;8.00;;;5.87;;
16436;SDS011;8328;52.206;21.006;2023-04-25T07:59:32;7.33;;;6.27;;
16436;SDS011;8328;52.206;21.006;2023-04-25T08:01:58;5.97;;;5.37;;
16436;SDS011;8328;52.206;21.006;2023-04-25T08:04:25;5.17;;;3.93;;
16436;SDS011;8328;52.206;21.006;2023-04-25T08:06:50;7.73;;;6.23;;
16436;SDS011;8328;52.206;21.006;2023-04-25T08:09:18;8.77;;;5.87;;
16436;SDS011;8328;52.206;21.006;2023-04-25T08:11:45;5.47;;;4.77;;
16436;SDS011;8328;52.206;21.006;2023-04-25T08:14:12;5.30;;;4.80;;
16436;SDS011;8328;52.206;21.006;2023-04-25T08:16:38;6.27;;;5.67;;
16436;SDS011;8328;52.206;21.006;2023-04-25T08:19:04;7.33;;;5.07;;
16436;SDS011;8328;52.206;21.006;2023-04-25T08:21:31;5.83;;;5.07;;
16436;SDS011;8328;52.206;21.006;2023-04-25T08:23:57;4.87;;;4.47;;
16436;SDS011;8328;52.206;21.006;2023-04-25T08:26:24;6.00;;;4.40;;
16436;SDS011;8328;52.206;21.006;2023-04-25T08:28:50;5.53;;;4.57;;
16436;SDS011;8328;52.206;21.006;2023-04-25T08:31:17;5.13;;;4.63;;
16436;SDS011;8328;52.206;21.006;2023-04-25T08:33:43;4.83;;;4.33;;
16436;SDS011;8328;52.206;21.006;2023-04-25T08:36:10;4.90;;;3.97;;
16436;SDS011;8328;52.206;21.006;2023-04-25T08:38:36;4.80;;;4.30;;
16436;SDS011;8328;52.206;21.006;2023-04-25T08:41:02;6.37;;;4.83;;
16436;SDS011;8328;52.206;21.006;2023-04-25T08:43:28;5.70;;;4.70;;
16436;SDS011;8328;52.206;21.006;2023-04-25T08:45:57;5.40;;;4.90;;
16436;SDS011;8328;52.206;21.006;2023-04-25T08:48:26;5.63;;;5.03;;
16436;SDS011;8328;52.206;21.006;2023-04-25T08:50:54;6.07;;;5.47;;
16436;SDS011;8328;52.206;21.006;2023-04-25T08:53:22;6.87;;;5.60;;
16436;SDS011;8328;52.206;21.006;2023-04-25T08:55:54;6.07;;;5.47;;
16436;SDS011;8328;52.206;21.006;2023-04-25T08:58:21;6.17;;;5.57;;
16436;SDS011;8328;52.206;21.006;2023-04-25T09:03:17;5.90;;;5.30;;
16436;SDS011;8328;52.206;21.006;2023-04-25T09:05:44;6.50;;;5.90;;
16436;SDS011;8328;52.206;21.006;2023-04-25T09:08:10;6.17;;;5.57;;
16436;SDS011;8328;52.206;21.006;2023-04-25T09:10:36;6.60;;;5.57;;
16436;SDS011;8328;52.206;21.006;2023-04-25T09:15:29;5.50;;;5.00;;
16436;SDS011;8328;52.206;21.006;2023-04-25T09:17:56;5.20;;;4.53;;
16436;SDS011;8328;52.206;21.006;2023-04-25T09:20:22;5.40;;;4.90;;
16436;SDS011;8328;52.206;21.006;2023-04-25T09:22:49;7.70;;;6.97;;
16436;SDS011;8328;52.206;21.006;2023-04-25T09:25:27;8.03;;;7.23;;
16436;SDS011;8328;52.206;21.006;2023-04-25T09:28:03;9.63;;;7.70;;
16436;SDS011;8328;52.206;21.006;2023-04-25T09:30:30;7.60;;;6.90;;
16436;SDS011;8328;52.206;21.006;2023-04-25T09:33:03;7.77;;;7.00;;
16436;SDS011;8328;52.206;21.006;2023-04-25T09:35:34;7.30;;;6.07;;
16436;SDS011;8328;52.206;21.006;2023-04-25T09:38:11;8.37;;;7.30;;
16436;SDS011;8328;52.206;21.006;2023-04-25T09:40:44;9.47;;;8.47;;
16436;SDS011;8328;52.206;21.006;2023-04-25T09:45:50;9.20;;;8.30;;
16436;SDS011;8328;52.206;21.006;2023-04-25T09:48:18;8.97;;;8.07;;
16436;SDS011;8328;52.206;21.006;2023-04-25T09:50:47;9.73;;;8.83;;
16436;SDS011;8328;52.206;21.006;2023-04-25T09:53:36;9.50;;;8.47;;
16436;SDS011;8328;52.206;21.006;2023-04-25T09:56:06;10.90;;;9.73;;
16436;SDS011;8328;52.206;21.006;2023-04-25T09:58:34;10.53;;;9.40;;
16436;SDS011;8328;52.206;21.006;2023-04-25T10:01:02;10.27;;;9.23;;
16436;SDS011;8328;52.206;21.006;2023-04-25T10:03:30;11.50;;;10.17;;
16436;SDS011;8328;52.206;21.006;2023-04-25T10:06:01;10.67;;;8.73;;
16436;SDS011;8328;52.206;21.006;2023-04-25T10:08:31;11.30;;;10.10;;
16436;SDS011;8328;52.206;21.006;2023-04-25T10:11:02;11.07;;;9.93;;
16436;SDS011;8328;52.206;21.006;2023-04-25T10:13:30;11.93;;;9.17;;
16436;SDS011;8328;52.206;21.006;2023-04-25T10:15:57;9.93;;;8.93;;
16436;SDS011;8328;52.206;21.006;2023-04-25T10:18:24;11.50;;;9.03;;
16436;SDS011;8328;52.206;21.006;2023-04-25T10:20:53;9.97;;;8.97;;
16436;SDS011;8328;52.206;21.006;2023-04-25T10:23:23;10.67;;;9.57;;
16436;SDS011;8328;52.206;21.006;2023-04-25T10:25:50;11.80;;;10.60;;
16436;SDS011;8328;52.206;21.006;2023-04-25T10:28:17;11.87;;;10.67;;
16436;SDS011;8328;52.206;21.006;2023-04-25T10:30:57;11.93;;;10.67;;
16436;SDS011;8328;52.206;21.006;2023-04-25T10:33:57;11.20;;;10.07;;
16436;SDS011;8328;52.206;21.006;2023-04-25T10:36:21;10.30;;;9.30;;
16436;SDS011;8328;52.206;21.006;2023-04-25T10:38:48;8.80;;;7.90;;
16436;SDS011;8328;52.206;21.006;2023-04-25T10:41:19;11.90;;;8.77;;
16436;SDS011;8328;52.206;21.006;2023-04-25T10:43:47;10.07;;;9.07;;
16436;SDS011;8328;52.206;21.006;2023-04-25T10:46:26;11.47;;;10.00;;
16436;SDS011;8328;52.206;21.006;2023-04-25T10:48:55;11.23;;;10.10;;
16436;SDS011;8328;52.206;21.006;2023-04-25T10:51:23;10.20;;;9.13;;
16436;SDS011;8328;52.206;21.006;2023-04-25T10:53:57;10.10;;;8.53;;
16436;SDS011;8328;52.206;21.006;2023-04-25T10:56:29;10.03;;;9.03;;
16436;SDS011;8328;52.206;21.006;2023-04-25T11:01:41;8.80;;;7.90;;
16436;SDS011;8328;52.206;21.006;2023-04-25T11:09:50;10.80;;;9.70;;
16436;SDS011;8328;52.206;21.006;2023-04-25T11:12:16;11.30;;;10.13;;
16436;SDS011;8328;52.206;21.006;2023-04-25T11:14:43;12.27;;;10.97;;
16436;SDS011;8328;52.206;21.006;2023-04-25T11:17:08;10.83;;;9.73;;
16436;SDS011;8328;52.206;21.006;2023-04-25T11:19:36;11.33;;;9.77;;
16436;SDS011;8328;52.206;21.006;2023-04-25T11:22:02;10.77;;;8.07;;
16436;SDS011;8328;52.206;21.006;2023-04-25T11:24:35;14.53;;;9.53;;
16436;SDS011;8328;52.206;21.006;2023-04-25T11:27:04;9.43;;;8.63;;
16436;SDS011;8328;52.206;21.006;2023-04-25T11:29:35;9.60;;;8.60;;
16436;SDS011;8328;52.206;21.006;2023-04-25T11:32:01;10.27;;;8.97;;
16436;SDS011;8328;52.206;21.006;2023-04-25T11:34:27;10.70;;;9.70;;
16436;SDS011;8328;52.206;21.006;2023-04-25T11:36:56;9.93;;;9.00;;
16436;SDS011;8328;52.206;21.006;2023-04-25T11:39:23;12.43;;;8.23;;
16436;SDS011;8328;52.206;21.006;2023-04-25T11:41:50;9.23;;;8.43;;
16436;SDS011;8328;52.206;21.006;2023-04-25T11:44:16;9.17;;;8.27;;
16436;SDS011;8328;52.206;21.006;2023-04-25T11:46:43;9.40;;;8.50;;
16436;SDS011;8328;52.206;21.006;2023-04-25T11:49:09;8.60;;;7.80;;
16436;SDS011;8328;52.206;21.006;2023-04-25T11:51:42;9.50;;;8.50;;
16436;SDS011;8328;52.206;21.006;2023-04-25T11:54:13;9.43;;;8.53;;
16436;SDS011;8328;52.206;21.006;2023-04-25T11:56:43;9.60;;;8.70;;
16436;SDS011;8328;52.206;21.006;2023-04-25T11:59:10;8.53;;;7.73;;
16436;SDS011;8328;52.206;21.006;2023-04-25T12:01:37;9.63;;;8.73;;
16436;SDS011;8328;52.206;21.006;2023-04-25T12:04:17;8.60;;;7.80;;
16436;SDS011;8328;52.206;21.006;2023-04-25T12:06:48;8.90;;;8.07;;
16436;SDS011;8328;52.206;21.006;2023-04-25T12:09:17;7.87;;;7.20;;
16436;SDS011;8328;52.206;21.006;2023-04-25T12:11:53;9.07;;;8.07;;
16436;SDS011;8328;52.206;21.006;2023-04-25T12:14:24;8.33;;;7.50;;
16436;SDS011;8328;52.206;21.006;2023-04-25T12:16:50;8.70;;;7.43;;
16436;SDS011;8328;52.206;21.006;2023-04-25T12:19:17;9.13;;;6.93;;
16436;SDS011;8328;52.206;21.006;2023-04-25T12:21:43;8.00;;;6.70;;
16436;SDS011;8328;52.206;21.006;2023-04-25T12:24:16;8.13;;;7.33;;
16436;SDS011;8328;52.206;21.006;2023-04-25T12:29:16;8.90;;;6.83;;
16436;SDS011;8328;52.206;21.006;2023-04-25T12:31:46;7.00;;;6.30;;
16436;SDS011;8328;52.206;21.006;2023-04-25T12:34:12;11.33;;;10.13;;
16436;SDS011;8328;52.206;21.006;2023-04-25T12:36:38;9.67;;;6.97;;
16436;SDS011;8328;52.206;21.006;2023-04-25T12:39:04;8.37;;;5.00;;
16436;SDS011;8328;52.206;21.006;2023-04-25T12:41:30;5.63;;;5.13;;
16436;SDS011;8328;52.206;21.006;2023-04-25T12:43:56;5.77;;;5.27;;
16436;SDS011;8328;52.206;21.006;2023-04-25T12:46:21;6.00;;;5.40;;
16436;SDS011;8328;52.206;21.006;2023-04-25T12:48:50;5.90;;;5.33;;
16436;SDS011;8328;52.206;21.006;2023-04-25T12:51:16;6.00;;;4.90;;
16436;SDS011;8328;52.206;21.006;2023-04-25T12:53:42;5.47;;;4.97;;
16436;SDS011;8328;52.206;21.006;2023-04-25T12:56:08;5.37;;;4.87;;
16436;SDS011;8328;52.206;21.006;2023-04-25T12:58:33;5.20;;;4.70;;
16436;SDS011;8328;52.206;21.006;2023-04-25T13:00:59;6.13;;;4.57;;
16436;SDS011;8328;52.206;21.006;2023-04-25T13:03:25;6.10;;;5.00;;
16436;SDS011;8328;52.206;21.006;2023-04-25T13:05:51;6.23;;;4.53;;
16436;SDS011;8328;52.206;21.006;2023-04-25T13:08:20;4.67;;;3.87;;
16436;SDS011;8328;52.206;21.006;2023-04-25T13:10:49;6.23;;;5.13;;
16436;SDS011;8328;52.206;21.006;2023-04-25T13:13:15;6.00;;;5.20;;
16436;SDS011;8328;52.206;21.006;2023-04-25T13:15:41;5.70;;;5.20;;
16436;SDS011;8328;52.206;21.006;2023-04-25T13:18:07;5.90;;;5.10;;
16436;SDS011;8328;52.206;21.006;2023-04-25T13:20:33;5.03;;;4.50;;
16436;SDS011;8328;52.206;21.006;2023-04-25T13:22:58;4.43;;;3.67;;
16436;SDS011;8328;52.206;21.006;2023-04-25T13:25:24;5.70;;;4.90;;
16436;SDS011;8328;52.206;21.006;2023-04-25T13:27:50;5.23;;;4.63;;
16436;SDS011;8328;52.206;21.006;2023-04-25T13:30:16;4.47;;;3.53;;
16436;SDS011;8328;52.206;21.006;2023-04-25T13:32:42;4.50;;;3.80;;
16436;SDS011;8328;52.206;21.006;2023-04-25T13:35:09;4.60;;;4.13;;
16436;SDS011;8328;52.206;21.006;2023-04-25T13:37:37;3.90;;;3.50;;
16436;SDS011;8328;52.206;21.006;2023-04-25T13:40:05;5.60;;;4.20;;
16436;SDS011;8328;52.206;21.006;2023-04-25T13:42:34;4.10;;;3.80;;
16436;SDS011;8328;52.206;21.006;2023-04-25T13:45:00;4.70;;;4.30;;
16436;SDS011;8328;52.206;21.006;2023-04-25T13:47:26;6.50;;;3.80;;
16436;SDS011;8328;52.206;21.006;2023-04-25T13:49:53;5.90;;;4.83;;
16436;SDS011;8328;52.206;21.006;2023-04-25T13:52:19;5.33;;;4.73;;
16436;SDS011;8328;52.206;21.006;2023-04-25T13:54:45;5.47;;;4.93;;
16436;SDS011;8328;52.206;21.006;2023-04-25T13:57:11;5.37;;;4.87;;
16436;SDS011;8328;52.206;21.006;2023-04-25T13:59:38;5.50;;;4.90;;
16436;SDS011;8328;52.206;21.006;2023-04-25T14:02:04;5.57;;;5.07;;
16436;SDS011;8328;52.206;21.006;2023-04-25T14:04:30;6.00;;;5.40;;
16436;SDS011;8328;52.206;21.006;2023-04-25T14:06:55;5.80;;;4.47;;
16436;SDS011;8328;52.206;21.006;2023-04-25T14:09:21;5.63;;;4.50;;
16436;SDS011;8328;52.206;21.006;2023-04-25T14:11:53;6.53;;;5.00;;
16436;SDS011;8328;52.206;21.006;2023-04-25T14:14:19;5.60;;;5.10;;
16436;SDS011;8328;52.206;21.006;2023-04-25T14:16:46;4.90;;;4.40;;
16436;SDS011;8328;52.206;21.006;2023-04-25T14:19:13;5.47;;;4.93;;
16436;SDS011;8328;52.206;21.006;2023-04-25T14:21:42;5.40;;;4.90;;
16436;SDS011;8328;52.206;21.006;2023-04-25T14:24:09;5.27;;;4.77;;
16436;SDS011;8328;52.206;21.006;2023-04-25T14:26:38;4.87;;;4.37;;
16436;SDS011;8328;52.206;21.006;2023-04-25T14:29:04;4.40;;;4.00;;
16436;SDS011;8328;52.206;21.006;2023-04-25T14:31:31;4.30;;;3.90;;
16436;SDS011;8328;52.206;21.006;2023-04-25T14:33:58;4.50;;;4.10;;
16436;SDS011;8328;52.206;21.006;2023-04-25T14:36:24;4.53;;;4.13;;
16436;SDS011;8328;52.206;21.006;2023-04-25T14:38:51;7.53;;;4.90;;
16436;SDS011;8328;52.206;21.006;2023-04-25T14:41:17;5.50;;;4.93;;
16436;SDS011;8328;52.206;21.006;2023-04-25T14:43:43;4.57;;;4.00;;
16436;SDS011;8328;52.206;21.006;2023-04-25T14:46:10;6.87;;;5.30;;
16436;SDS011;8328;52.206;21.006;2023-04-25T14:48:36;5.20;;;4.70;;
16436;SDS011;8328;52.206;21.006;2023-04-25T14:51:02;6.00;;;4.77;;
16436;SDS011;8328;52.206;21.006;2023-04-25T14:53:28;6.37;;;4.83;;
16436;SDS011;8328;52.206;21.006;2023-04-25T14:55:53;5.73;;;4.30;;